Time;durP1;ratioP1;P1;durP2;ratioP2;P2;SDS_P1;SDS_P2;PMS_P1;PMS_P2;Temp;Humidity;BMP_temperature;BMP_pressure;BME280_temperature;BME280_humidity;BME280_pressure;Samples;Min_cycle;Max_cycle;Signal;HPM_P1;HPM_P2
2023/10/30 00:02:21;;;;;;;;;;;10.90;99.90;;;10.32;100.00;96582.41;4964863;28;1858;-74
2023/10/30 00:04:48;;;;;;;;;;;10.70;99.90;;;10.25;100.00;96575.88;4979815;28;1915;-74
2023/10/30 00:07:17;;;;;;;;;;;10.80;99.90;;;10.21;100.00;96584.75;4978784;28;1868;-74
2023/10/30 00:09:44;;;;;;;;;;;10.70;99.90;;;10.26;100.00;96573.22;4967183;28;1665;-74
2023/10/30 00:12:11;;;;;;;;;;;10.60;99.90;;;10.31;100.00;96572.97;4979073;28;1614;-74
2023/10/30 00:14:38;;;;;;;;;;;10.60;99.90;;;10.19;100.00;96560.66;4980905;28;1822;-73
2023/10/30 00:17:05;;;;;;;;;;;10.50;99.90;;;10.19;100.00;96576.22;4981509;28;1736;-73
2023/10/30 00:19:32;;;;;;;;;;;10.50;99.90;;;10.21;100.00;96543.25;4979657;28;1812;-74
2023/10/30 00:21:59;;;;;;;;;;;10.50;99.90;;;10.23;100.00;96526.69;4976741;28;1545;-74
2023/10/30 00:24:29;;;;;;;;;;;10.50;99.90;;;10.20;100.00;96562.34;4982218;28;2001;-74
2023/10/30 00:26:56;;;;;;;;;;;10.50;99.90;;;10.16;100.00;96561.69;4995080;28;1636;-74
2023/10/30 00:29:23;;;;;;;;;;;10.50;99.90;;;10.17;100.00;96578.91;4980926;28;1805;-73
2023/10/30 00:31:50;;;;;;;;;;;10.50;99.90;;;10.17;100.00;96578.06;4978960;28;1848;-74
2023/10/30 00:34:17;;;;;;;;;;;10.50;99.90;;;10.04;100.00;96575.34;4980051;28;1809;-73
2023/10/30 00:36:44;;;;;;;;;;;10.40;99.90;;;10.03;100.00;96571.94;4981398;28;1799;-72
2023/10/30 00:39:11;;;;;;;;;;;10.40;99.90;;;9.98;100.00;96563.56;4996054;28;1772;-73
2023/10/30 00:41:38;;;;;;;;;;;10.30;99.90;;;10.01;100.00;96573.78;4979104;28;1766;-73
2023/10/30 00:44:06;;;;;;;;;;;10.30;99.90;;;9.93;100.00;96578.53;4978447;28;1958;-73
2023/10/30 00:46:33;;;;;;;;;;;10.30;99.90;;;9.90;100.00;96541.56;4979600;28;1802;-75
2023/10/30 00:49:00;;;;;;;;;;;10.30;99.90;;;9.88;100.00;96580.56;4980714;28;1916;-75
2023/10/30 00:51:27;;;;;;;;;;;10.20;99.90;;;9.91;100.00;96570.00;4993841;28;1944;-74
2023/10/30 00:53:54;;;;;;;;;;;10.20;99.90;;;9.95;100.00;96622.53;4978570;28;1952;-75
2023/10/30 00:56:21;;;;;;;;;;;10.20;99.90;;;9.90;100.00;96603.78;4981430;28;1818;-73
2023/10/30 00:58:48;;;;;;;;;;;10.20;99.90;;;9.91;100.00;96584.72;4980419;28;1636;-73
2023/10/30 01:01:17;;;;;;;;;;;10.20;99.90;;;9.87;100.00;96606.56;4978899;28;1938;-72
2023/10/30 01:03:44;;;;;;;;;;;10.20;99.90;;;9.90;100.00;96603.78;4977440;28;1778;-73
2023/10/30 01:06:11;;;;;;;;;;;10.20;99.90;;;9.86;100.00;96595.34;4977546;28;1903;-72
2023/10/30 01:08:38;;;;;;;;;;;10.20;99.90;;;9.86;100.00;96574.63;4981537;28;1615;-73
2023/10/30 01:11:09;;;;;;;;;;;10.10;99.90;;;9.84;100.00;96610.16;4985338;28;1885;-73
2023/10/30 01:13:36;;;;;;;;;;;10.10;99.90;;;9.84;100.00;96592.84;4986217;28;1741;-71
2023/10/30 01:16:05;;;;;;;;;;;10.20;99.90;;;9.81;100.00;96589.59;4981797;28;1721;-73
2023/10/30 01:18:32;;;;;;;;;;;10.10;99.90;;;9.73;100.00;96579.63;4982984;28;1653;-72
2023/10/30 01:20:59;;;;;;;;;;;10.20;99.90;;;9.79;100.00;96581.91;4983615;28;1822;-73
2023/10/30 01:23:26;;;;;;;;;;;10.10;99.90;;;9.72;100.00;96588.34;4984999;28;2018;-72
2023/10/30 01:25:53;;;;;;;;;;;10.20;99.90;;;9.71;100.00;96584.06;4985275;28;1903;-73
2023/10/30 01:28:20;;;;;;;;;;;10.10;99.90;;;9.74;100.00;96585.66;4969024;28;1811;-73
2023/10/30 01:30:47;;;;;;;;;;;10.20;99.90;;;9.72;100.00;96556.41;4983712;28;1710;-72
2023/10/30 01:33:14;;;;;;;;;;;10.20;99.90;;;9.77;100.00;96577.72;4985186;28;1565;-72
2023/10/30 01:35:41;;;;;;;;;;;10.10;99.90;;;9.79;100.00;96555.97;4968808;28;1517;-72
2023/10/30 01:38:08;;;;;;;;;;;10.10;99.90;;;9.74;100.00;96560.59;4987904;28;1430;-72
2023/10/30 01:40:35;;;;;;;;;;;10.20;99.90;;;9.71;100.00;96549.56;4973274;28;1478;-73
2023/10/30 01:43:08;;;;;;;;;;;10.10;99.90;;;9.73;100.00;96543.34;4986947;28;1446;-72
2023/10/30 01:45:35;;;;;;;;;;;10.20;99.90;;;9.78;100.00;96535.31;4983035;28;1988;-73
2023/10/30 01:48:03;;;;;;;;;;;10.20;99.90;;;9.75;100.00;96533.75;4987248;28;1407;-72
2023/10/30 01:50:31;;;;;;;;;;;10.20;99.90;;;9.73;100.00;96538.19;4970574;28;1411;-73
2023/10/30 01:52:58;;;;;;;;;;;10.20;99.90;;;9.75;100.00;96538.09;4982100;28;1712;-73
2023/10/30 01:55:25;;;;;;;;;;;10.20;99.90;;;9.69;100.00;96541.03;4981924;28;1644;-73
2023/10/30 01:57:52;;;;;;;;;;;10.10;99.90;;;9.69;100.00;96534.06;4981306;28;1968;-73
2023/10/30 02:00:19;;;;;;;;;;;10.20;99.90;;;9.78;100.00;96537.91;4982775;28;1619;-73
2023/10/30 02:02:46;;;;;;;;;;;10.20;99.90;;;9.83;100.00;96548.88;4985485;28;1476;-73
2023/10/30 02:05:13;;;;;;;;;;;10.20;99.90;;;9.79;100.00;96535.25;4985921;28;2012;-74
2023/10/30 02:07:40;;;;;;;;;;;10.20;99.90;;;9.82;100.00;96531.66;4969983;28;1765;-73
2023/10/30 02:10:07;;;;;;;;;;;10.20;99.90;;;9.90;100.00;96539.84;4985196;28;1606;-73
2023/10/30 02:12:35;;;;;;;;;;;10.20;99.90;;;9.90;100.00;96552.78;4969602;28;1449;-73
2023/10/30 02:15:03;;;;;;;;;;;10.20;99.90;;;9.94;100.00;96541.31;4982201;28;1360;-72
2023/10/30 02:17:30;;;;;;;;;;;10.20;99.90;;;9.88;100.00;96528.72;4985329;28;1404;-73
2023/10/30 02:19:57;;;;;;;;;;;10.20;99.90;;;9.88;100.00;96528.72;4988239;28;1397;-73
2023/10/30 02:22:24;;;;;;;;;;;10.20;99.90;;;9.93;100.00;96528.47;4986838;28;1386;-73
2023/10/30 02:24:51;;;;;;;;;;;10.20;99.90;;;9.93;100.00;96526.69;4982559;28;1942;-74
2023/10/30 02:27:18;;;;;;;;;;;10.30;99.90;;;9.90;100.00;96520.84;4987454;28;1677;-74
2023/10/30 02:29:45;;;;;;;;;;;10.30;99.90;;;9.94;100.00;96497.25;4985363;28;1467;-73
2023/10/30 02:32:13;;;;;;;;;;;10.30;99.90;;;9.92;100.00;96509.47;4984343;28;1517;-73
2023/10/30 02:34:40;;;;;;;;;;;10.30;99.90;;;9.99;100.00;96515.97;4982086;28;1452;-73
2023/10/30 02:37:07;;;;;;;;;;;10.30;99.90;;;9.99;100.00;96512.53;5000344;28;1918;-74
2023/10/30 02:39:34;;;;;;;;;;;10.30;99.90;;;9.95;100.00;96509.31;4987440;28;1657;-73
2023/10/30 02:42:02;;;;;;;;;;;10.30;99.90;;;10.07;100.00;96501.75;4981942;28;1523;-74
2023/10/30 02:44:30;;;;;;;;;;;10.40;99.90;;;10.05;100.00;96507.84;4973558;28;1899;-73
2023/10/30 02:46:57;;;;;;;;;;;10.40;99.90;;;10.01;100.00;96516.72;4985719;28;1659;-73
2023/10/30 02:49:25;;;;;;;;;;;10.40;99.90;;;10.05;100.00;96533.75;4984458;28;1473;-74
2023/10/30 02:51:52;;;;;;;;;;;10.40;99.90;;;10.05;100.00;96510.44;4984853;28;1497;-74
2023/10/30 02:54:19;;;;;;;;;;;10.40;99.90;;;10.04;100.00;96489.78;4987165;28;1435;-74
2023/10/30 02:56:46;;;;;;;;;;;10.40;99.90;;;10.02;100.00;96494.22;4981281;28;1406;-74
2023/10/30 02:59:13;;;;;;;;;;;10.40;99.90;;;10.09;100.00;96487.75;4983741;28;1363;-74
2023/10/30 03:01:41;;;;;;;;;;;10.40;99.90;;;10.09;100.00;96489.53;4986152;28;1554;-73
2023/10/30 03:04:09;;;;;;;;;;;10.50;99.90;;;10.08;100.00;96485.25;4982599;28;1410;-74
2023/10/30 03:06:36;;;;;;;;;;;10.40;99.90;;;10.06;100.00;96495.72;4967822;28;1979;-73
2023/10/30 03:09:03;;;;;;;;;;;10.40;99.90;;;10.01;100.00;96498.59;4986310;28;1491;-74
2023/10/30 03:11:30;;;;;;;;;;;10.40;99.90;;;10.09;100.00;96499.91;4983763;28;1631;-73
2023/10/30 03:13:57;;;;;;;;;;;10.40;99.90;;;10.11;100.00;96498.88;4983818;28;1819;-73
2023/10/30 03:16:24;;;;;;;;;;;10.50;99.90;;;10.11;100.00;96505.84;4983125;28;1537;-74
2023/10/30 03:18:51;;;;;;;;;;;10.50;99.90;;;10.11;100.00;96513.63;4984518;28;1914;-74
2023/10/30 03:21:20;;;;;;;;;;;10.40;99.90;;;10.12;100.00;96512.69;4984284;28;1417;-75
2023/10/30 03:23:47;;;;;;;;;;;10.50;99.90;;;10.12;100.00;96515.25;4981092;28;1736;-74
2023/10/30 03:26:14;;;;;;;;;;;10.50;99.90;;;10.22;100.00;96516.41;4981053;28;1906;-73
2023/10/30 03:28:43;;;;;;;;;;;10.50;99.90;;;10.18;100.00;96507.97;4981464;28;1512;-73
2023/10/30 03:31:09;;;;;;;;;;;10.50;99.90;;;10.27;100.00;96523.00;4983464;28;1539;-73
2023/10/30 03:33:36;;;;;;;;;;;10.60;99.90;;;10.26;100.00;96508.38;4979680;28;1567;-73
2023/10/30 03:36:04;;;;;;;;;;;10.60;99.90;;;10.32;100.00;96524.53;4966965;28;1544;-74
2023/10/30 03:38:31;;;;;;;;;;;10.60;99.90;;;10.31;100.00;96518.50;4984288;28;1390;-73
2023/10/30 03:40:58;;;;;;;;;;;10.60;99.90;;;10.25;100.00;96517.06;5000862;28;1854;-74
2023/10/30 03:43:26;;;;;;;;;;;10.70;99.90;;;10.31;100.00;96515.91;4982652;28;1418;-74
2023/10/30 03:45:53;;;;;;;;;;;10.60;99.90;;;10.32;100.00;96516.75;4978665;28;1910;-74
2023/10/30 03:48:20;;;;;;;;;;;10.60;99.90;;;10.35;100.00;96519.16;4982301;28;1483;-74
2023/10/30 03:50:51;;;;;;;;;;;10.60;99.90;;;10.39;100.00;96515.44;4981940;28;1549;-74
2023/10/30 03:53:18;;;;;;;;;;;10.70;99.90;;;10.33;100.00;96515.81;4984783;28;1413;-74
2023/10/30 03:55:45;;;;;;;;;;;10.60;99.90;;;10.27;100.00;96504.84;4981841;28;1484;-74
2023/10/30 03:58:12;;;;;;;;;;;10.70;99.90;;;10.32;100.00;96499.41;4981088;28;1431;-74
2023/10/30 04:00:39;;;;;;;;;;;10.60;99.90;;;10.38;100.00;96509.44;4983518;28;1472;-74
2023/10/30 04:03:07;;;;;;;;;;;10.70;99.90;;;10.41;100.00;96517.03;4984345;28;1440;-74
2023/10/30 04:05:34;;;;;;;;;;;10.70;99.90;;;10.37;100.00;96512.13;4983586;28;1960;-74
2023/10/30 04:08:01;;;;;;;;;;;10.70;99.90;;;10.44;100.00;96511.66;4985307;28;1441;-75
2023/10/30 04:10:28;;;;;;;;;;;10.70;99.90;;;10.42;100.00;96510.94;4984606;28;1464;-74
2023/10/30 04:12:55;;;;;;;;;;;10.70;99.90;;;10.38;100.00;96508.59;4968710;28;1465;-75
2023/10/30 04:15:22;;;;;;;;;;;10.70;99.90;;;10.42;100.00;96510.06;4980027;28;1447;-74
2023/10/30 04:17:50;;;;;;;;;;;10.70;99.90;;;10.39;100.00;96503.31;4980052;28;1426;-74
2023/10/30 04:20:17;;;;;;;;;;;10.70;99.90;;;10.40;100.00;96507.59;4983884;28;1427;-74
2023/10/30 04:22:44;;;;;;;;;;;10.80;99.90;;;10.42;100.00;96523.03;4984241;28;1534;-74
2023/10/30 04:25:12;;;;;;;;;;;10.80;99.90;;;10.48;100.00;96514.91;4978353;28;1902;-74
2023/10/30 04:27:39;;;;;;;;;;;10.80;99.90;;;10.47;100.00;96510.66;4981484;28;1595;-74
2023/10/30 04:30:07;;;;;;;;;;;10.80;99.90;;;10.48;100.00;96508.91;4984933;28;1528;-73
2023/10/30 04:32:33;;;;;;;;;;;10.80;99.90;;;10.41;100.00;96503.22;4980577;28;1486;-73
2023/10/30 04:35:00;;;;;;;;;;;10.80;99.90;;;10.44;100.00;96503.88;4982745;28;1403;-74
2023/10/30 04:37:27;;;;;;;;;;;10.80;99.90;;;10.42;100.00;96500.56;4980803;28;1859;-74
2023/10/30 04:39:54;;;;;;;;;;;10.80;99.90;;;10.41;100.00;96506.66;4982627;28;1388;-74
2023/10/30 04:42:21;;;;;;;;;;;10.80;99.90;;;10.42;100.00;96515.25;4999989;28;1479;-72
2023/10/30 04:44:49;;;;;;;;;;;10.70;99.90;;;10.44;100.00;96521.19;4986546;28;1793;-75
2023/10/30 04:47:17;;;;;;;;;;;10.80;99.90;;;10.42;100.00;96513.53;4985250;28;1840;-75
2023/10/30 04:49:45;;;;;;;;;;;10.80;99.90;;;10.43;100.00;96525.56;4985004;28;1502;-74
2023/10/30 04:52:13;;;;;;;;;;;10.80;99.90;;;10.43;100.00;96533.34;4986060;28;1472;-74
2023/10/30 04:54:40;;;;;;;;;;;10.70;99.90;;;10.42;100.00;96541.19;4971014;28;1524;-74
2023/10/30 04:57:07;;;;;;;;;;;10.80;99.90;;;10.42;100.00;96542.06;4972202;28;1555;-75
2023/10/30 04:59:34;;;;;;;;;;;10.80;99.90;;;10.41;100.00;96553.34;4986156;28;1476;-74
2023/10/30 05:02:01;;;;;;;;;;;10.80;99.90;;;10.40;100.00;96553.44;4987407;28;1549;-74
2023/10/30 05:04:28;;;;;;;;;;;10.70;99.90;;;10.37;100.00;96551.84;4972121;28;1452;-74
2023/10/30 05:06:55;;;;;;;;;;;10.70;99.90;;;10.44;100.00;96560.09;4986826;28;1976;-75
2023/10/30 05:09:22;;;;;;;;;;;10.70;99.90;;;10.40;100.00;96561.22;4987437;28;1701;-75
2023/10/30 05:11:49;;;;;;;;;;;10.70;99.90;;;10.45;100.00;96577.38;4986817;28;1488;-75
2023/10/30 05:14:17;;;;;;;;;;;10.70;99.90;;;10.42;100.00;96583.56;5001492;28;1525;-74
2023/10/30 05:16:43;;;;;;;;;;;10.70;99.90;;;10.39;100.00;96590.69;4986234;28;1393;-74
2023/10/30 05:19:11;;;;;;;;;;;10.70;99.90;;;10.44;100.00;96597.25;4986608;28;1673;-75
2023/10/30 05:21:38;;;;;;;;;;;10.70;99.90;;;10.42;100.00;96580.13;4988292;28;1570;-75
2023/10/30 05:24:06;;;;;;;;;;;10.70;99.90;;;10.40;100.00;96572.44;4986758;28;1507;-74
2023/10/30 05:26:33;;;;;;;;;;;10.70;99.90;;;10.33;100.00;96565.09;4986593;28;1902;-74
2023/10/30 05:29:00;;;;;;;;;;;10.70;99.90;;;10.36;100.00;96565.75;4986506;28;1350;-75
2023/10/30 05:31:28;;;;;;;;;;;10.70;99.90;;;10.36;100.00;96554.56;4969603;28;1487;-74
2023/10/30 05:33:55;;;;;;;;;;;10.70;99.90;;;10.40;100.00;96546.50;4970510;28;1928;-75
2023/10/30 05:36:21;;;;;;;;;;;10.70;99.90;;;10.36;100.00;96542.41;4985900;28;1566;-74
2023/10/30 05:38:49;;;;;;;;;;;10.70;99.90;;;10.38;100.00;96532.78;4987072;28;1402;-74
2023/10/30 05:41:16;;;;;;;;;;;10.70;99.90;;;10.36;100.00;96536.41;4985240;28;1500;-75
2023/10/30 05:43:46;;;;;;;;;;;10.70;99.90;;;10.38;100.00;96529.38;4985183;28;1566;-74
2023/10/30 05:46:12;;;;;;;;;;;10.70;99.90;;;10.45;100.00;96539.28;4984182;28;1925;-73
2023/10/30 05:48:40;;;;;;;;;;;10.70;99.90;;;10.36;100.00;96547.59;4984804;28;1620;-74
2023/10/30 05:51:07;;;;;;;;;;;10.60;99.90;;;10.35;100.00;96568.44;4987036;28;1479;-73
2023/10/30 05:53:34;;;;;;;;;;;10.70;99.90;;;10.37;100.00;96566.59;4984702;28;1377;-74
2023/10/30 05:56:01;;;;;;;;;;;10.70;99.90;;;10.39;100.00;96551.78;4986283;28;1586;-73
2023/10/30 05:58:28;;;;;;;;;;;10.70;99.90;;;10.38;100.00;96539.75;4982911;28;1438;-74
2023/10/30 06:00:55;;;;;;;;;;;10.70;99.90;;;10.43;100.00;96538.53;4983428;28;1518;-74
2023/10/30 06:03:22;;;;;;;;;;;10.70;99.90;;;10.38;100.00;96535.38;4984082;28;1412;-74
2023/10/30 06:05:49;;;;;;;;;;;10.70;99.90;;;10.37;100.00;96540.66;4986268;28;1914;-74
2023/10/30 06:08:18;;;;;;;;;;;10.70;99.90;;;10.45;100.00;96536.69;4968983;28;1527;-72
2023/10/30 06:10:45;;;;;;;;;;;10.70;99.90;;;10.53;100.00;96543.19;4986136;28;1430;-74
2023/10/30 06:13:12;;;;;;;;;;;10.80;99.90;;;10.47;100.00;96552.16;4984240;28;1539;-74
2023/10/30 06:15:39;;;;;;;;;;;10.70;99.90;;;10.49;100.00;96544.28;4989234;28;1416;-74
2023/10/30 06:18:06;;;;;;;;;;;10.80;99.90;;;10.49;100.00;96528.72;4984190;28;1588;-73
2023/10/30 06:20:34;;;;;;;;;;;10.80;99.90;;;10.49;100.00;96518.34;4986905;28;1586;-74
2023/10/30 06:23:00;;;;;;;;;;;10.80;99.90;;;10.51;100.00;96537.25;4988549;28;1393;-74
2023/10/30 06:25:27;;;;;;;;;;;10.80;99.90;;;10.54;100.00;96547.47;4986363;28;1914;-74
2023/10/30 06:27:55;;;;;;;;;;;10.80;99.90;;;10.46;100.00;96548.72;4987281;28;1392;-74
2023/10/30 06:30:22;;;;;;;;;;;10.80;99.90;;;10.59;100.00;96551.44;4985359;28;1617;-74
2023/10/30 06:32:49;;;;;;;;;;;10.80;99.90;;;10.52;100.00;96551.91;4987473;28;1443;-74
2023/10/30 06:35:16;;;;;;;;;;;10.80;99.90;;;10.50;100.00;96557.16;4983519;28;1316;-73
2023/10/30 06:37:43;;;;;;;;;;;10.80;99.90;;;10.46;100.00;96569.47;4999665;28;1369;-75
2023/10/30 06:40:11;;;;;;;;;;;10.80;99.90;;;10.49;100.00;96567.63;4983937;28;1404;-74
2023/10/30 06:42:59;;;;;;;;;;;10.80;99.90;;;10.40;100.00;96577.63;4983667;28;1419;-75
2023/10/30 06:45:25;;;;;;;;;;;10.80;99.90;;;10.48;100.00;96572.00;4981936;28;2065;-75
2023/10/30 06:47:53;;;;;;;;;;;10.80;99.90;;;10.48;100.00;96573.75;4987076;28;1775;-75
2023/10/30 06:50:22;;;;;;;;;;;10.80;99.90;;;10.49;100.00;96572.81;4983406;28;1324;-75
2023/10/30 06:52:49;;;;;;;;;;;10.80;99.90;;;10.51;100.00;96577.00;4986116;28;1408;-75
2023/10/30 06:55:16;;;;;;;;;;;10.80;99.90;;;10.62;100.00;96576.38;4984557;28;1567;-75
2023/10/30 06:57:43;;;;;;;;;;;10.90;99.90;;;10.53;100.00;96569.94;4983720;28;1423;-74
2023/10/30 07:00:11;;;;;;;;;;;10.80;99.90;;;10.62;100.00;96572.00;4985741;28;1427;-75
2023/10/30 07:02:40;;;;;;;;;;;10.80;99.90;;;10.51;100.00;96582.19;4981639;28;1511;-75
2023/10/30 07:05:11;;;;;;;;;;;10.80;99.90;;;10.58;100.00;96582.66;4982554;28;1555;-74
2023/10/30 07:07:38;;;;;;;;;;;10.90;99.90;;;10.54;100.00;96584.63;4983881;28;1903;-75
2023/10/30 07:10:06;;;;;;;;;;;10.90;99.90;;;10.53;100.00;96595.06;4985449;28;1462;-75
2023/10/30 07:12:33;;;;;;;;;;;10.90;99.90;;;10.56;100.00;96600.94;4986687;28;1477;-75
2023/10/30 07:15:01;;;;;;;;;;;10.80;99.90;;;10.54;100.00;96582.03;4971592;28;1596;-75
2023/10/30 07:17:28;;;;;;;;;;;10.90;99.90;;;10.56;100.00;96574.97;4984402;28;1413;-75
2023/10/30 07:19:55;;;;;;;;;;;10.90;99.90;;;10.63;100.00;96581.47;4984059;28;1358;-75
2023/10/30 07:22:22;;;;;;;;;;;10.90;99.90;;;10.59;100.00;96582.56;4986871;28;1421;-75
2023/10/30 07:24:49;;;;;;;;;;;10.90;99.90;;;10.67;100.00;96590.75;4987995;28;1540;-75
2023/10/30 07:27:18;;;;;;;;;;;10.90;99.90;;;10.64;100.00;96600.47;4985095;28;1993;-75
2023/10/30 07:29:45;;;;;;;;;;;10.90;99.90;;;10.62;100.00;96595.34;4987179;28;1484;-75
2023/10/30 07:32:12;;;;;;;;;;;10.90;99.90;;;10.65;100.00;96602.13;4984639;28;1621;-75
2023/10/30 07:34:40;;;;;;;;;;;10.90;99.90;;;10.68;100.00;96597.59;4969440;28;1424;-75
2023/10/30 07:37:08;;;;;;;;;;;10.90;99.90;;;10.77;100.00;96588.44;4983731;28;1382;-75
2023/10/30 07:39:35;;;;;;;;;;;11.00;99.90;;;10.72;100.00;96584.44;4982614;28;1430;-75
2023/10/30 07:42:05;;;;;;;;;;;11.00;99.90;;;10.71;100.00;96590.56;4982609;28;1395;-75
2023/10/30 07:44:32;;;;;;;;;;;11.00;99.90;;;10.77;100.00;96592.81;4981639;28;1051;-75
2023/10/30 07:46:59;;;;;;;;;;;11.00;99.90;;;10.74;100.00;96590.38;4985196;28;1886;-75
2023/10/30 07:49:26;;;;;;;;;;;11.00;99.90;;;10.72;100.00;96589.63;4984253;28;1466;-75
2023/10/30 07:51:53;;;;;;;;;;;11.00;99.90;;;10.72;100.00;96577.50;4985828;28;1460;-74
2023/10/30 07:54:21;;;;;;;;;;;11.00;99.90;;;10.68;100.00;96576.84;4980789;28;1640;-75
2023/10/30 07:56:48;;;;;;;;;;;11.00;99.90;;;10.70;100.00;96565.53;4982605;28;1725;-75
2023/10/30 07:59:15;;;;;;;;;;;11.00;99.90;;;10.72;100.00;96561.94;4982809;28;1395;-75
2023/10/30 08:01:45;;;;;;;;;;;10.90;99.90;;;10.77;100.00;96565.09;4981475;28;1376;-75
2023/10/30 08:04:12;;;;;;;;;;;11.00;99.90;;;10.76;100.00;96559.97;4970877;28;1213;-74
2023/10/30 08:06:39;;;;;;;;;;;11.00;99.90;;;10.77;100.00;96556.47;4985852;28;1911;-75
2023/10/30 08:09:08;;;;;;;;;;;11.00;99.90;;;10.71;100.00;96564.63;4988861;28;1474;-74
2023/10/30 08:11:35;;;;;;;;;;;10.90;99.90;;;10.68;100.00;96568.22;4983859;28;1429;-75
2023/10/30 08:14:02;;;;;;;;;;;11.00;99.90;;;10.67;100.00;96561.34;4981903;28;1463;-75
2023/10/30 08:16:29;;;;;;;;;;;10.90;99.90;;;10.67;100.00;96566.53;4984396;28;1517;-75
2023/10/30 08:18:57;;;;;;;;;;;10.90;99.90;;;10.58;100.00;96567.94;4982549;28;1399;-75
2023/10/30 08:21:24;;;;;;;;;;;10.90;99.90;;;10.72;100.00;96571.47;4981061;28;1619;-76
2023/10/30 08:23:51;;;;;;;;;;;10.90;99.90;;;10.66;100.00;96577.88;4996608;28;1402;-75
2023/10/30 08:26:18;;;;;;;;;;;10.90;99.90;;;10.71;100.00;96569.81;4987610;28;1902;-75
2023/10/30 08:28:45;;;;;;;;;;;11.00;99.90;;;10.81;100.00;96573.50;4984403;28;1063;-75
2023/10/30 08:31:15;;;;;;;;;;;11.00;99.90;;;10.72;100.00;96567.13;4984311;28;1617;-75
2023/10/30 08:33:42;;;;;;;;;;;11.00;99.90;;;10.90;100.00;96552.19;4979076;28;1403;-75
2023/10/30 08:36:09;;;;;;;;;;;11.00;99.90;;;10.92;100.00;96539.94;4986175;28;1205;-75
2023/10/30 08:38:38;;;;;;;;;;;11.10;99.90;;;10.97;100.00;96537.94;4980564;28;1805;-76
2023/10/30 08:41:06;;;;;;;;;;;11.10;99.90;;;11.14;100.00;96534.28;4979444;28;1431;-75
2023/10/30 08:43:33;;;;;;;;;;;11.10;99.90;;;11.03;100.00;96537.53;4998269;28;1556;-76
2023/10/30 08:46:01;;;;;;;;;;;11.10;99.90;;;10.91;100.00;96537.47;4985140;28;1907;-75
2023/10/30 08:48:28;;;;;;;;;;;11.10;99.90;;;11.00;100.00;96539.50;4981667;28;1639;-74
2023/10/30 08:50:55;;;;;;;;;;;11.10;99.90;;;10.93;100.00;96530.44;4985024;28;1509;-76
2023/10/30 08:53:22;;;;;;;;;;;11.10;99.90;;;11.16;100.00;96526.41;4983164;28;1352;-76
2023/10/30 08:55:49;;;;;;;;;;;11.10;99.90;;;11.29;100.00;96522.13;4986545;28;1082;-76
2023/10/30 08:58:16;;;;;;;;;;;11.20;99.90;;;11.31;100.00;96517.66;4982105;28;1628;-75
2023/10/30 09:00:43;;;;;;;;;;;11.10;99.90;;;11.33;100.00;96515.78;4983051;28;1434;-75
2023/10/30 09:03:10;;;;;;;;;;;11.20;99.90;;;11.30;100.00;96505.59;4981673;28;1804;-76
2023/10/30 09:05:37;;;;;;;;;;;11.20;99.90;;;11.34;100.00;96501.91;4992683;28;1461;-75
2023/10/30 09:08:04;;;;;;;;;;;11.30;99.90;;;11.39;100.00;96496.41;4980357;28;2001;-75
2023/10/30 09:10:32;;;;;;;;;;;11.30;99.90;;;11.71;100.00;96492.56;4983789;28;1308;-75
2023/10/30 09:12:59;;;;;;;;;;;11.50;99.90;;;11.71;100.00;96486.56;4981069;28;1602;-75
2023/10/30 09:15:27;;;;;;;;;;;11.60;99.90;;;11.56;100.00;96490.97;4998674;28;1271;-75
2023/10/30 09:17:54;;;;;;;;;;;11.60;99.90;;;11.67;100.00;96487.69;4982715;28;1487;-75
2023/10/30 09:20:21;;;;;;;;;;;11.60;99.90;;;11.70;100.00;96490.94;4985834;28;1597;-74
2023/10/30 09:22:48;;;;;;;;;;;11.60;99.90;;;11.58;100.00;96481.28;4980389;28;1166;-74
2023/10/30 09:25:15;;;;;;;;;;;11.60;99.90;;;11.71;100.00;96476.16;4982970;28;1161;-74
2023/10/30 09:27:44;;;;;;;;;;;11.60;99.90;;;11.57;100.00;96473.63;4982429;28;2002;-74
2023/10/30 09:30:11;;;;;;;;;;;11.50;99.90;;;11.57;100.00;96469.25;4986644;28;1097;-74
2023/10/30 09:32:39;;;;;;;;;;;11.60;99.90;;;11.54;100.00;96469.47;5000555;28;1555;-75
2023/10/30 09:35:06;;;;;;;;;;;11.50;99.90;;;11.61;100.00;96478.53;4984686;28;1463;-74
2023/10/30 09:37:33;;;;;;;;;;;11.40;99.90;;;11.45;100.00;96464.84;4987489;28;1648;-75
2023/10/30 09:40:01;;;;;;;;;;;11.40;99.90;;;11.64;100.00;96467.91;4985222;28;1576;-75
2023/10/30 09:42:29;;;;;;;;;;;11.50;99.90;;;11.48;100.00;96481.06;4983922;28;1427;-74
2023/10/30 09:44:59;;;;;;;;;;;11.50;99.90;;;11.35;100.00;96479.34;4982607;28;1366;-75
2023/10/30 09:47:27;;;;;;;;;;;11.60;99.90;;;11.43;100.00;96475.31;4982960;28;1902;-75
2023/10/30 09:49:54;;;;;;;;;;;11.60;99.90;;;11.47;100.00;96470.75;4982433;28;1431;-75
2023/10/30 09:52:22;;;;;;;;;;;11.50;99.90;;;11.54;100.00;96463.41;4982782;28;1394;-75
2023/10/30 09:54:49;;;;;;;;;;;11.50;99.90;;;11.48;100.00;96456.84;4987567;28;1003;-74
2023/10/30 09:57:16;;;;;;;;;;;11.60;99.90;;;11.53;100.00;96446.97;4984636;28;1537;-75
2023/10/30 09:59:43;;;;;;;;;;;11.60;99.90;;;11.79;100.00;96431.44;4982674;28;1464;-74
2023/10/30 10:02:10;;;;;;;;;;;11.70;99.90;;;11.82;100.00;96426.91;4979973;28;1482;-75
2023/10/30 10:04:38;;;;;;;;;;;11.70;99.90;;;11.64;100.00;96438.50;4983548;28;1561;-73
2023/10/30 10:07:05;;;;;;;;;;;11.70;99.90;;;11.51;100.00;96433.25;4973426;28;1918;-75
2023/10/30 10:09:32;;;;;;;;;;;11.70;99.90;;;11.59;100.00;96417.19;4983048;28;1530;-75
2023/10/30 10:11:59;;;;;;;;;;;11.60;99.90;;;11.48;100.00;96418.69;4985767;28;1411;-74
2023/10/30 10:14:29;;;;;;;;;;;11.60;99.90;;;11.39;100.00;96423.66;4985255;28;1383;-75
2023/10/30 10:16:58;;;;;;;;;;;11.50;99.90;;;11.39;100.00;96421.88;5000221;28;1460;-75
2023/10/30 10:19:27;;;;;;;;;;;11.40;99.90;;;11.37;100.00;96420.31;4973216;28;1408;-75
2023/10/30 10:21:56;;;;;;;;;;;11.40;99.90;;;11.42;100.00;96420.84;4982587;28;1419;-74
2023/10/30 10:24:38;;;;;;;;;;;11.40;99.90;;;11.56;100.00;96417.38;4982753;28;1400;-75
2023/10/30 10:27:06;;;;;;;;;;;11.50;99.90;;;11.69;100.00;96408.66;4982235;28;1906;-74
2023/10/30 10:29:34;;;;;;;;;;;11.60;99.90;;;11.79;100.00;96403.72;4983937;28;1546;-74
2023/10/30 10:32:01;;;;;;;;;;;11.70;99.90;;;11.68;100.00;96403.59;4979803;28;1457;-74
2023/10/30 10:34:32;;;;;;;;;;;11.70;99.90;;;11.65;100.00;96402.00;4984214;28;1612;-73
2023/10/30 10:37:01;;;;;;;;;;;11.70;99.90;;;11.67;100.00;96394.09;4980725;28;1399;-73
2023/10/30 10:39:48;;;;;;;;;;;11.70;99.90;;;11.77;100.00;96394.31;4983963;28;1551;-73
2023/10/30 10:42:18;;;;;;;;;;;11.70;99.90;;;11.80;100.00;96396.72;4982364;28;1634;-73
2023/10/30 10:44:46;;;;;;;;;;;11.80;99.90;;;11.80;100.00;96391.53;4986769;28;1585;-73
2023/10/30 10:47:14;;;;;;;;;;;11.80;99.90;;;11.95;100.00;96392.28;4981879;28;1982;-73
2023/10/30 10:49:41;;;;;;;;;;;11.80;99.90;;;11.90;100.00;96382.22;4983138;28;1230;-72
2023/10/30 10:52:10;;;;;;;;;;;11.90;99.90;;;11.77;100.00;96373.53;4983817;28;1466;-72
2023/10/30 10:54:44;;;;;;;;;;;11.90;99.90;;;11.82;100.00;96374.06;4982477;28;1549;-71
2023/10/30 10:57:18;;;;;;;;;;;12.00;99.90;;;11.86;100.00;96370.31;4982739;28;1970;-72
2023/10/30 10:59:47;;;;;;;;;;;12.00;99.90;;;12.23;100.00;96360.88;4983338;28;1442;-73
2023/10/30 11:02:21;;;;;;;;;;;12.10;99.90;;;12.28;100.00;96352.78;4986494;28;1367;-73
2023/10/30 11:04:50;;;;;;;;;;;12.10;99.90;;;12.39;100.00;96342.44;4982411;28;1533;-72
2023/10/30 11:07:28;;;;;;;;;;;12.20;99.90;;;12.61;100.00;96336.56;4988865;28;1989;-72
2023/10/30 11:09:58;;;;;;;;;;;12.30;99.90;;;12.86;100.00;96332.22;4984729;28;1496;-72
2023/10/30 11:12:42;;;;;;;;;;;12.40;99.90;;;12.96;100.00;96325.41;4986405;28;2100;-72
2023/10/30 11:15:30;;;;;;;;;;;12.60;99.90;;;13.08;100.00;96323.69;4989264;28;1421;-73
2023/10/30 11:18:17;;;;;;;;;;;12.70;99.90;;;13.18;100.00;96322.91;4984669;28;1243;-72
2023/10/30 11:20:45;;;;;;;;;;;12.80;99.90;;;13.28;100.00;96314.47;4983197;28;1491;-71
2023/10/30 11:23:12;;;;;;;;;;;12.90;99.90;;;13.47;100.00;96319.97;4983604;28;1087;-72